Portada
METAR-TAF:

METAR-TAF

Aeroports :

Vladikavkaz, Rússia

latitud: 43-12-18N, longitud: 044-36-24E, altitud: 510 m

Observació

L'informe es va fer fa 3 hores i 4 minuts, a les 17:30 UTC
Vent 2 kt amb direcció variable
Temperatura 21°C
Humitat 88%
Pressió 1017 hPa
Visibilitat 10 km o més

METAR: URMO 191730Z VRB01MPS 9999 NSC 21/19 Q1017 R09/010070 NOSIG RMK QFE719/0958

Hora: 23:34 (20:34 UTC)

Pronòstic

L'informe es va fer fa 6 hores i 34 minuts, a les 14:00 UTC
Pronòstic vàlid del 19 a les 15 UTC al 19 a les 24 UTC
Vent 6 kt del Oest amb ràfegues de 16 kt
Visibilitat 10 km o més
Cel ennuvolat a una alçada de 3000 ft
Temporalment
l' 19 a les 15 UTC al 19 a les 21 UTC
Visibilitat: 3100 m
Cel ennuvolat a una alçada de 2000 ft, Cumulonimbus.
xàfecs de pluja

TAF: URMO 191400Z 1915/1924 28003G08MPS 9999 BKN030 TEMPO 1915/1921 3100 -SHRA BKN020CB

Observacions i pronòstics meteorològics de més de 4000 aeroports (METAR i TAF).

Les estacions disponibles són els punts grocs i vermells al mapa.

Posi el ratolí al punt desitjat per veure el nom de l'estació.

Feu clic per veure les observacions i els pronòstics meteorològics.

Per canviar el mapa: feu clic els botons verds amb una creu de color negre per apropar; al botó verd amb un guió per allunyar la imatge; o en les fletxes verdes per a mapes adjacents.


METAR-TAF: